createdAt,value
2019-04-21T00:01:52.171Z,11.83
2019-04-21T00:04:36.397Z,10.33
2019-04-21T00:07:17.555Z,10.40
2019-04-21T00:12:20.648Z,14.53
2019-04-21T00:14:43.853Z,11.43
2019-04-21T00:17:11.027Z,8.67
2019-04-21T00:19:49.671Z,11.07
2019-04-21T00:22:36.739Z,9.87
2019-04-21T00:25:09.008Z,8.93
2019-04-21T00:27:44.015Z,9.00
2019-04-21T00:30:21.387Z,9.70
2019-04-21T00:32:41.904Z,7.80
2019-04-21T00:35:09.974Z,8.73
2019-04-21T00:37:54.633Z,8.83
2019-04-21T00:40:27.753Z,8.17
2019-04-21T00:43:01.319Z,11.33
2019-04-21T00:45:29.227Z,8.27
2019-04-21T00:48:09.728Z,8.33
2019-04-21T00:50:51.062Z,9.27
2019-04-21T00:53:30.099Z,11.37
2019-04-21T00:55:56.181Z,8.23
2019-04-21T01:01:01.847Z,8.37
2019-04-21T01:03:40.176Z,8.37
2019-04-21T01:06:03.322Z,10.27
2019-04-21T01:08:36.954Z,9.13
2019-04-21T01:11:12.369Z,8.60
2019-04-21T01:13:49.773Z,8.03
2019-04-21T01:16:20.837Z,9.50
2019-04-21T01:18:51.843Z,9.23
2019-04-21T01:20:59.909Z,8.47
2019-04-21T01:23:31.736Z,9.27
2019-04-21T01:26:20.973Z,7.87
2019-04-21T01:28:52.481Z,8.77
2019-04-21T01:31:24.254Z,9.50
2019-04-21T01:34:05.712Z,8.10
2019-04-21T01:36:33.676Z,8.50
2019-04-21T01:39:05.352Z,8.33
2019-04-21T01:41:41.352Z,8.23
2019-04-21T01:44:04.996Z,12.67
2019-04-21T01:46:40.756Z,8.50
2019-04-21T01:49:09.176Z,9.10
2019-04-21T01:51:57.995Z,8.23
2019-04-21T01:55:00.325Z,11.43
2019-04-21T01:57:42.645Z,7.63
2019-04-21T02:00:10.694Z,9.00
2019-04-21T02:02:59.355Z,9.27
2019-04-21T02:05:34.433Z,7.87
2019-04-21T02:07:59.798Z,12.60
2019-04-21T02:10:37.250Z,8.27
2019-04-21T02:13:03.200Z,8.87
2019-04-21T02:15:58.152Z,7.77
2019-04-21T02:18:08.703Z,9.33
2019-04-21T02:20:33.941Z,8.10
2019-04-21T02:25:48.744Z,8.37
2019-04-21T02:28:32.175Z,7.87
2019-04-21T02:31:04.955Z,8.67
2019-04-21T02:33:38.203Z,7.97
2019-04-21T02:41:05.836Z,9.07
2019-04-21T02:43:46.526Z,9.10
2019-04-21T02:46:26.632Z,8.33
2019-04-21T02:48:56.404Z,7.90
2019-04-21T02:51:27.820Z,9.23
2019-04-21T02:56:43.835Z,8.60
2019-04-21T02:59:15.094Z,8.60
2019-04-21T03:02:03.628Z,7.87
2019-04-21T03:07:40.741Z,8.13
2019-04-21T03:17:43.845Z,11.10
2019-04-21T03:20:14.960Z,8.47
2019-04-21T03:22:42.719Z,8.27
2019-04-21T03:25:30.357Z,8.73
2019-04-21T03:30:26.324Z,8.63
2019-04-21T03:38:16.689Z,10.27
2019-04-21T03:40:25.534Z,9.10
2019-04-21T03:48:09.384Z,10.30
2019-04-21T03:50:47.367Z,9.37
2019-04-21T03:53:09.616Z,9.13
2019-04-21T03:58:32.199Z,9.97
2019-04-21T04:01:05.761Z,11.17
2019-04-21T04:06:25.719Z,10.10
2019-04-21T04:09:19.210Z,10.30
2019-04-21T04:11:51.368Z,10.77
2019-04-21T04:14:26.666Z,11.30
2019-04-21T04:19:30.493Z,11.87
2019-04-21T04:22:14.302Z,10.87
2019-04-21T04:24:33.091Z,11.07
2019-04-21T04:27:07.976Z,9.87
2019-04-21T04:29:33.609Z,12.07
2019-04-21T04:32:18.764Z,10.87
2019-04-21T04:34:47.316Z,12.53
2019-04-21T04:37:23.986Z,10.67
2019-04-21T04:42:56.437Z,11.73
2019-04-21T04:45:34.543Z,11.53
2019-04-21T04:48:11.710Z,17.47
2019-04-21T04:50:45.479Z,11.60
2019-04-21T04:53:17.066Z,11.13
2019-04-21T04:55:38.868Z,11.33
2019-04-21T04:58:29.610Z,11.70
2019-04-21T05:00:50.830Z,12.17
2019-04-21T05:03:26.308Z,11.40
2019-04-21T05:06:42.654Z,13.40
2019-04-21T05:09:08.890Z,11.50
2019-04-21T05:16:53.091Z,12.10
2019-04-21T05:19:18.156Z,11.67
2019-04-21T05:21:39.432Z,12.17
2019-04-21T05:24:09.737Z,12.87
2019-04-21T05:26:38.989Z,12.10
2019-04-21T05:29:10.518Z,11.63
2019-04-21T05:32:13.274Z,11.50
2019-04-21T05:34:50.344Z,11.93
2019-04-21T05:37:51.840Z,13.30
2019-04-21T05:40:24.899Z,12.93
2019-04-21T05:42:55.450Z,12.47
2019-04-21T05:45:34.901Z,14.27
2019-04-21T05:48:25.579Z,12.60
2019-04-21T05:50:42.953Z,11.77
2019-04-21T05:53:26.878Z,12.97
2019-04-21T05:55:58.171Z,14.37
2019-04-21T05:58:21.394Z,15.33
2019-04-21T06:03:42.760Z,12.80
2019-04-21T06:08:37.329Z,12.17
2019-04-21T06:11:10.332Z,13.13
2019-04-21T06:13:51.983Z,12.83
2019-04-21T06:16:14.405Z,12.30
2019-04-21T06:21:16.338Z,12.13
2019-04-21T06:23:53.907Z,11.83
2019-04-21T06:29:13.458Z,10.57
2019-04-21T06:31:46.956Z,10.73
2019-04-21T06:34:08.140Z,10.93
2019-04-21T06:36:47.087Z,10.80
2019-04-21T06:39:31.803Z,10.83
2019-04-21T06:41:49.167Z,11.27
2019-04-21T06:44:16.900Z,11.83
2019-04-21T06:47:03.547Z,10.97
2019-04-21T06:49:19.477Z,11.50
2019-04-21T06:51:57.610Z,10.77
2019-04-21T06:56:58.579Z,10.33
2019-04-21T06:59:31.869Z,14.57
2019-04-21T07:02:23.059Z,11.37
2019-04-21T07:04:58.995Z,11.03
2019-04-21T07:07:14.489Z,9.77
2019-04-21T07:09:50.503Z,10.47
2019-04-21T07:12:13.800Z,10.33
2019-04-21T07:14:49.469Z,11.13
2019-04-21T07:17:24.318Z,10.77
2019-04-21T07:19:55.173Z,9.57
2019-04-21T07:22:33.722Z,10.60
2019-04-21T07:25:03.112Z,10.77
2019-04-21T07:27:35.307Z,9.70
2019-04-21T07:30:04.285Z,10.33
2019-04-21T07:32:33.485Z,11.73
2019-04-21T07:35:08.351Z,10.63
2019-04-21T07:37:45.099Z,10.07
2019-04-21T07:40:10.678Z,10.10
2019-04-21T07:42:42.851Z,10.53
2019-04-21T07:45:15.109Z,10.73
2019-04-21T07:47:59.245Z,10.40
2019-04-21T07:50:39.058Z,9.63
2019-04-21T07:53:22.827Z,9.13
2019-04-21T07:58:17.807Z,8.80
2019-04-21T08:03:30.387Z,9.43
2019-04-21T08:05:59.049Z,10.30
2019-04-21T08:08:31.439Z,9.63
2019-04-21T08:10:56.969Z,9.77
2019-04-21T08:14:13.961Z,10.17
2019-04-21T08:18:39.537Z,9.20
2019-04-21T08:21:06.083Z,9.53
2019-04-21T08:23:41.594Z,9.53
2019-04-21T08:26:15.572Z,9.03
2019-04-21T08:28:53.699Z,10.40
2019-04-21T08:31:24.086Z,10.33
2019-04-21T08:39:01.406Z,8.67
2019-04-21T08:41:31.591Z,8.90
2019-04-21T08:44:07.461Z,8.00
2019-04-21T08:46:43.833Z,8.13
2019-04-21T08:49:09.400Z,8.17
2019-04-21T08:52:08.241Z,7.37
2019-04-21T08:54:17.001Z,8.20
2019-04-21T08:57:10.436Z,8.70
2019-04-21T09:00:08.723Z,10.03
2019-04-21T09:02:41.499Z,7.27
2019-04-21T09:05:11.214Z,8.13
2019-04-21T09:07:49.315Z,7.53
2019-04-21T09:10:17.570Z,7.90
2019-04-21T09:12:49.124Z,6.93
2019-04-21T09:15:22.848Z,8.20
2019-04-21T09:17:49.222Z,8.60
2019-04-21T09:20:33.855Z,9.10
2019-04-21T09:23:00.724Z,8.20
2019-04-21T09:28:04.324Z,9.03
2019-04-21T09:30:19.896Z,8.90
2019-04-21T09:32:53.453Z,9.63
2019-04-21T09:35:24.130Z,9.00
2019-04-21T09:38:02.136Z,7.50
2019-04-21T09:40:34.417Z,8.47
2019-04-21T09:43:04.785Z,12.37
2019-04-21T09:45:32.919Z,13.97
2019-04-21T09:48:09.947Z,6.53
2019-04-21T09:50:37.888Z,7.30
2019-04-21T09:53:20.942Z,7.17
2019-04-21T09:55:50.002Z,6.47
2019-04-21T09:58:24.213Z,7.33
2019-04-21T10:01:00.009Z,5.97
2019-04-21T10:03:20.847Z,6.37
2019-04-21T10:05:51.979Z,10.17
2019-04-21T10:08:23.033Z,10.00
2019-04-21T10:10:54.710Z,6.77
2019-04-21T10:13:25.623Z,6.53
2019-04-21T10:16:10.859Z,6.97
2019-04-21T10:18:41.754Z,8.53
2019-04-21T10:21:13.215Z,7.23
2019-04-21T10:23:44.079Z,7.50
2019-04-21T10:26:15.089Z,7.37
2019-04-21T10:28:46.886Z,6.47
2019-04-21T10:31:18.524Z,8.00
2019-04-21T10:33:50.282Z,9.57
2019-04-21T10:36:22.689Z,6.30
2019-04-21T10:38:55.220Z,6.57
2019-04-21T10:41:27.465Z,5.63
2019-04-21T10:43:59.004Z,7.13
2019-04-21T10:46:30.806Z,7.50
2019-04-21T10:49:01.688Z,7.87
2019-04-21T10:51:32.892Z,5.80
2019-04-21T10:54:04.055Z,5.60
2019-04-21T10:56:41.155Z,5.10
2019-04-21T10:59:08.056Z,6.00
2019-04-21T11:01:39.259Z,5.77
2019-04-21T11:04:27.810Z,5.93
2019-04-21T11:06:57.086Z,6.27
2019-04-21T11:09:29.569Z,5.80
2019-04-21T11:12:00.241Z,5.80
2019-04-21T11:14:31.540Z,4.70
2019-04-21T11:17:03.939Z,5.53
2019-04-21T11:19:35.043Z,6.10
2019-04-21T11:22:07.112Z,6.10
2019-04-21T11:24:38.975Z,5.03
2019-04-21T11:27:10.936Z,7.40
2019-04-21T11:29:41.726Z,10.07
2019-04-21T11:32:12.818Z,5.43
2019-04-21T11:34:45.214Z,8.97
2019-04-21T11:37:17.615Z,5.33
2019-04-21T11:39:55.333Z,7.27
2019-04-21T11:42:30.091Z,5.13
2019-04-21T11:45:01.099Z,6.13
2019-04-21T11:47:40.665Z,5.90
2019-04-21T11:50:12.844Z,5.50
2019-04-21T11:52:45.089Z,4.50
2019-04-21T11:55:16.594Z,5.70
2019-04-21T11:57:49.801Z,6.93
2019-04-21T12:00:19.954Z,5.27
2019-04-21T12:02:51.226Z,5.63
2019-04-21T12:05:23.498Z,5.80
2019-04-21T12:07:58.301Z,6.47
2019-04-21T12:10:27.137Z,5.37
2019-04-21T12:12:59.132Z,5.90
2019-04-21T12:15:31.296Z,5.83
2019-04-21T12:18:03.759Z,7.33
2019-04-21T12:20:35.617Z,6.00
2019-04-21T12:23:06.842Z,6.00
2019-04-21T12:25:40.974Z,5.67
2019-04-21T12:28:12.219Z,7.47
2019-04-21T12:30:45.255Z,5.83
2019-04-21T12:33:34.160Z,7.57
2019-04-21T12:36:06.145Z,4.80
2019-04-21T12:38:44.669Z,5.07
2019-04-21T12:41:10.669Z,4.43
2019-04-21T12:43:42.590Z,4.93
2019-04-21T12:46:13.969Z,4.17
2019-04-21T12:48:46.112Z,5.87
2019-04-21T12:51:17.620Z,4.70
2019-04-21T12:53:49.770Z,5.57
2019-04-21T12:56:20.702Z,5.03
2019-04-21T12:58:51.547Z,11.83
2019-04-21T13:01:23.169Z,5.63
2019-04-21T13:03:55.477Z,4.77
2019-04-21T13:06:27.754Z,5.77
2019-04-21T13:09:04.927Z,5.93
2019-04-21T13:11:31.099Z,9.03
2019-04-21T13:14:03.968Z,9.63
2019-04-21T13:16:35.054Z,5.90
2019-04-21T13:19:07.091Z,8.67
2019-04-21T13:21:38.348Z,8.03
2019-04-21T13:24:09.078Z,13.10
2019-04-21T13:26:47.394Z,10.97
2019-04-21T13:29:12.297Z,9.07
2019-04-21T13:31:44.441Z,6.30
2019-04-21T13:34:15.910Z,6.07
2019-04-21T13:36:47.686Z,6.27
2019-04-21T13:40:14.691Z,8.37
2019-04-21T13:42:36.337Z,5.97
2019-04-21T13:45:02.177Z,8.90
2019-04-21T13:47:32.515Z,9.03
2019-04-21T13:50:05.313Z,5.73
2019-04-21T13:52:36.554Z,7.67
2019-04-21T13:55:09.476Z,5.37
2019-04-21T13:57:40.931Z,6.93
2019-04-21T14:00:13.227Z,5.93
2019-04-21T14:02:44.778Z,5.70
2019-04-21T14:05:16.453Z,7.23
2019-04-21T14:07:48.175Z,5.93
2019-04-21T14:10:21.732Z,5.23
2019-04-21T14:12:54.127Z,4.83
2019-04-21T14:15:26.292Z,5.40
2019-04-21T14:17:58.331Z,4.80
2019-04-21T14:20:29.538Z,5.53
2019-04-21T14:23:13.501Z,5.27
2019-04-21T14:25:32.801Z,5.50
2019-04-21T14:28:04.041Z,4.97
2019-04-21T14:30:34.864Z,4.30
2019-04-21T14:33:05.714Z,5.63
2019-04-21T14:35:36.763Z,5.27
2019-04-21T14:38:08.950Z,4.93
2019-04-21T14:40:40.114Z,5.57
2019-04-21T14:43:11.995Z,5.20
2019-04-21T14:45:52.637Z,5.27
2019-04-21T14:48:41.221Z,9.07
2019-04-21T14:51:34.917Z,5.13
2019-04-21T14:54:24.845Z,5.30
2019-04-21T14:56:55.694Z,4.80
2019-04-21T14:59:26.974Z,4.70
2019-04-21T15:01:59.848Z,7.47
2019-04-21T15:04:31.515Z,5.33
2019-04-21T15:07:03.345Z,5.90
2019-04-21T15:09:35.896Z,5.63
2019-04-21T15:12:07.975Z,6.60
2019-04-21T15:14:40.280Z,7.27
2019-04-21T15:17:12.470Z,5.97
2019-04-21T15:19:54.041Z,5.33
2019-04-21T15:22:16.519Z,6.43
2019-04-21T15:24:48.113Z,11.73
2019-04-21T15:27:19.058Z,6.17
2019-04-21T15:29:51.058Z,6.50
2019-04-21T15:32:22.349Z,5.67
2019-04-21T15:34:54.034Z,5.90
2019-04-21T15:37:26.036Z,6.97
2019-04-21T15:39:56.859Z,5.97
2019-04-21T15:42:28.378Z,6.60
2019-04-21T15:45:00.817Z,7.10
2019-04-21T15:47:31.873Z,6.37
2019-04-21T15:50:09.113Z,6.20
2019-04-21T15:52:35.879Z,7.40
2019-04-21T15:55:14.786Z,6.17
2019-04-21T15:57:56.508Z,6.20
2019-04-21T16:00:52.452Z,6.27
2019-04-21T16:03:24.736Z,6.43
2019-04-21T16:05:55.838Z,6.33
2019-04-21T16:08:27.126Z,6.40
2019-04-21T16:11:00.747Z,6.27
2019-04-21T16:13:31.956Z,6.27
2019-04-21T16:16:04.175Z,11.97
2019-04-21T16:18:36.279Z,6.87
2019-04-21T16:21:08.337Z,6.40
2019-04-21T16:23:40.399Z,6.57
2019-04-21T16:26:12.660Z,7.73
2019-04-21T16:28:44.869Z,7.40
2019-04-21T16:31:16.360Z,6.97
2019-04-21T16:33:47.177Z,7.77
2019-04-21T16:36:18.394Z,7.07
2019-04-21T16:38:51.450Z,7.00
2019-04-21T16:41:22.517Z,7.37
2019-04-21T16:43:53.523Z,7.50
2019-04-21T16:46:25.321Z,6.60
2019-04-21T16:48:56.119Z,6.47
2019-04-21T16:51:28.135Z,9.13
2019-04-21T16:54:08.272Z,7.13
2019-04-21T16:56:55.584Z,7.27
2019-04-21T16:59:37.054Z,8.13
2019-04-21T17:02:07.814Z,6.47
2019-04-21T17:04:40.171Z,6.70
2019-04-21T17:07:11.461Z,7.90
2019-04-21T17:09:42.269Z,6.70
2019-04-21T17:12:14.672Z,7.60
2019-04-21T17:15:01.101Z,8.03
2019-04-21T17:17:42.761Z,8.03
2019-04-21T17:19:55.603Z,7.77
2019-04-21T17:22:23.785Z,8.33
2019-04-21T17:24:55.975Z,7.83
2019-04-21T17:27:27.201Z,8.50
2019-04-21T17:29:58.996Z,8.77
2019-04-21T17:32:34.356Z,9.10
2019-04-21T17:35:03.864Z,15.00
2019-04-21T17:37:36.150Z,11.80
2019-04-21T17:40:09.014Z,11.87
2019-04-21T17:42:48.179Z,9.67
2019-04-21T17:45:13.177Z,7.37
2019-04-21T17:47:50.675Z,8.33
2019-04-21T17:50:33.643Z,9.97
2019-04-21T17:53:11.193Z,14.20
2019-04-21T17:55:41.240Z,10.43
2019-04-21T17:58:29.167Z,7.80
2019-04-21T18:01:13.990Z,10.07
2019-04-21T18:03:58.532Z,14.03
2019-04-21T18:06:03.730Z,14.77
2019-04-21T18:08:40.172Z,16.07
2019-04-21T18:11:07.671Z,11.43
2019-04-21T18:13:28.754Z,10.27
2019-04-21T18:16:12.373Z,9.13
2019-04-21T18:18:34.818Z,17.20
2019-04-21T18:21:27.019Z,9.13
2019-04-21T18:24:07.198Z,9.30
2019-04-21T18:26:40.555Z,11.57
2019-04-21T18:29:05.586Z,9.90
2019-04-21T18:31:44.572Z,11.90
2019-04-21T18:34:33.860Z,7.63
2019-04-21T18:37:14.167Z,8.77
2019-04-21T18:39:59.978Z,7.40
2019-04-21T18:42:48.136Z,7.67
2019-04-21T18:46:02.190Z,7.60
2019-04-21T18:48:29.358Z,8.33
2019-04-21T18:51:13.912Z,9.27
2019-04-21T18:54:14.840Z,8.27
2019-04-21T18:56:27.630Z,10.67
2019-04-21T18:59:00.574Z,9.90
2019-04-21T19:01:34.818Z,9.73
2019-04-21T19:04:11.531Z,10.63
2019-04-21T19:06:54.393Z,9.40
2019-04-21T19:09:41.399Z,9.53
2019-04-21T19:12:00.738Z,14.53
2019-04-21T19:14:36.228Z,11.20
2019-04-21T19:17:39.596Z,11.30
2019-04-21T19:19:51.865Z,10.57
2019-04-21T19:22:11.737Z,10.27
2019-04-21T19:24:49.077Z,11.47
2019-04-21T19:30:01.620Z,10.03
2019-04-21T19:32:23.913Z,10.20
2019-04-21T19:34:40.689Z,12.07
2019-04-21T19:37:15.447Z,9.83
2019-04-21T19:39:58.515Z,10.03
2019-04-21T19:42:25.525Z,8.63
2019-04-21T19:45:06.103Z,8.97
2019-04-21T19:47:44.966Z,9.50
2019-04-21T19:50:12.758Z,9.43
2019-04-21T19:52:42.338Z,9.93
2019-04-21T19:55:00.573Z,11.00
2019-04-21T19:57:32.019Z,9.63
2019-04-21T20:00:04.247Z,8.57
2019-04-21T20:02:36.367Z,9.13
2019-04-21T20:05:13.686Z,7.57
2019-04-21T20:08:01.575Z,7.67
2019-04-21T20:10:33.438Z,7.63
2019-04-21T20:13:07.258Z,7.20
2019-04-21T20:15:41.971Z,8.07
2019-04-21T20:18:07.095Z,6.07
2019-04-21T20:20:26.923Z,6.27
2019-04-21T20:22:59.352Z,6.07
2019-04-21T20:25:34.665Z,7.17
2019-04-21T20:28:14.702Z,6.17
2019-04-21T20:31:00.722Z,5.63
2019-04-21T20:33:49.261Z,7.40
2019-04-21T20:36:01.960Z,5.73
2019-04-21T20:38:26.450Z,5.67
2019-04-21T20:40:59.124Z,5.50
2019-04-21T20:43:54.123Z,4.73
2019-04-21T20:46:08.236Z,5.17
2019-04-21T20:48:42.113Z,7.10
2019-04-21T20:51:18.422Z,6.03
2019-04-21T20:53:46.598Z,4.57
2019-04-21T20:56:13.290Z,4.47
2019-04-21T20:58:53.683Z,4.57
2019-04-21T21:01:39.521Z,9.60
2019-04-21T21:03:55.636Z,4.43
2019-04-21T21:06:33.216Z,5.07
2019-04-21T21:09:09.065Z,4.77
2019-04-21T21:11:36.741Z,4.53
2019-04-21T21:14:11.716Z,4.47
2019-04-21T21:16:48.839Z,5.33
2019-04-21T21:19:23.892Z,4.40
2019-04-21T21:21:45.174Z,5.00
2019-04-21T21:24:21.884Z,5.10
2019-04-21T21:26:54.432Z,4.93
2019-04-21T21:29:31.281Z,5.00
2019-04-21T21:32:05.251Z,7.13
2019-04-21T21:34:35.886Z,5.97
2019-04-21T21:37:15.897Z,6.97
2019-04-21T21:39:47.202Z,9.33
2019-04-21T21:41:57.576Z,7.70
2019-04-21T21:44:28.038Z,6.23
2019-04-21T21:47:12.073Z,6.37
2019-04-21T21:49:44.025Z,6.50
2019-04-21T21:52:13.273Z,7.20
2019-04-21T21:54:36.018Z,7.37
2019-04-21T21:57:08.180Z,6.60
2019-04-21T21:59:40.404Z,7.17
2019-04-21T22:02:17.149Z,5.53
2019-04-21T22:07:22.559Z,4.97
2019-04-21T22:09:50.820Z,5.83
2019-04-21T22:12:22.200Z,5.00
2019-04-21T22:14:55.454Z,6.37
2019-04-21T22:17:41.601Z,5.10
2019-04-21T22:20:13.294Z,5.00
2019-04-21T22:22:43.869Z,4.60
2019-04-21T22:25:12.644Z,5.50
2019-04-21T22:27:39.101Z,6.03
2019-04-21T22:30:12.853Z,5.23
2019-04-21T22:32:52.016Z,7.00
2019-04-21T22:35:27.162Z,4.87
2019-04-21T22:38:01.944Z,5.77
2019-04-21T22:40:33.909Z,6.40
2019-04-21T22:43:07.138Z,3.90
2019-04-21T22:45:29.405Z,5.80
2019-04-21T22:48:08.977Z,5.53
2019-04-21T22:50:35.300Z,5.30
2019-04-21T22:53:09.656Z,4.40
2019-04-21T22:55:40.933Z,4.77
2019-04-21T22:58:17.006Z,5.00
2019-04-21T23:00:51.433Z,5.10
2019-04-21T23:03:21.359Z,5.17
2019-04-21T23:05:53.520Z,5.07
2019-04-21T23:08:31.872Z,9.03
2019-04-21T23:11:02.572Z,5.80
2019-04-21T23:13:30.907Z,4.77
2019-04-21T23:16:04.161Z,5.00
2019-04-21T23:18:46.449Z,4.87
2019-04-21T23:21:21.158Z,4.90
2019-04-21T23:24:01.796Z,4.83
2019-04-21T23:26:30.985Z,4.93
2019-04-21T23:29:09.029Z,7.40
2019-04-21T23:31:40.472Z,5.37
2019-04-21T23:33:52.446Z,4.53
2019-04-21T23:36:27.930Z,5.63
2019-04-21T23:38:58.516Z,5.07
2019-04-21T23:41:36.085Z,5.77
2019-04-21T23:44:06.857Z,5.17
2019-04-21T23:46:37.357Z,6.03
2019-04-21T23:49:22.832Z,6.00
2019-04-21T23:51:47.725Z,8.90
2019-04-21T23:54:13.470Z,5.33
2019-04-21T23:56:47.625Z,5.53
2019-04-21T23:59:18.124Z,5.70
